Time;durP1;ratioP1;P1;durP2;ratioP2;P2;SDS_P1;SDS_P2;PMS_P1;PMS_P2;Temp;Humidity;BMP_temperature;BMP_pressure;BME280_temperature;BME280_humidity;BME280_pressure;Samples;Min_cycle;Max_cycle;Signal;HPM_P1;HPM_P2
2024/04/21 00:00:29;;;;;;;;;6.25;3.75;;;;;7.47;62.06;102005.28;5428252;26;43841;-64
2024/04/21 00:02:55;;;;;;;;;7.75;5.00;;;;;7.48;62.81;101999.22;5428786;26;70688;-63
2024/04/21 00:05:20;;;;;;;;;7.50;5.50;;;;;7.49;61.79;102004.44;5429169;26;68299;-64
2024/04/21 00:07:45;;;;;;;;;7.75;4.25;;;;;7.45;61.92;102002.66;5429872;26;62752;-64
2024/04/21 00:10:11;;;;;;;;;4.25;4.00;;;;;7.46;63.11;102006.16;5455146;26;67339;-64
2024/04/21 00:12:36;;;;;;;;;6.25;4.00;;;;;7.44;62.64;101998.34;5466729;25;43815;-63
2024/04/21 00:15:04;;;;;;;;;4.75;3.50;;;;;7.44;62.97;101989.63;5431674;25;68277;-62
2024/04/21 00:17:30;;;;;;;;;8.75;5.00;;;;;7.43;62.47;101988.75;5429978;26;43934;-62
2024/04/21 00:19:55;;;;;;;;;8.25;4.50;;;;;7.44;63.34;101992.22;5445336;26;72136;-62
2024/04/21 00:22:20;;;;;;;;;7.25;6.75;;;;;7.42;62.52;101987.03;5433235;26;45542;-64
2024/04/21 00:24:46;;;;;;;;;8.75;5.00;;;;;7.40;63.53;101981.81;5431080;26;68421;-62
2024/04/21 00:27:11;;;;;;;;;6.00;3.00;;;;;7.40;62.06;101988.72;5429396;26;69478;-60
2024/04/21 00:29:36;;;;;;;;;8.00;7.00;;;;;7.38;62.71;101980.03;5432960;26;59321;-63
2024/04/21 00:32:02;;;;;;;;;9.25;4.50;;;;;7.39;63.40;101984.41;5429488;26;43854;-63
2024/04/21 00:34:27;;;;;;;;;6.25;3.75;;;;;7.37;63.67;101981.78;5429827;26;44181;-63
2024/04/21 00:36:52;;;;;;;;;10.25;3.75;;;;;7.33;63.61;101977.44;5429093;26;62001;-63
2024/04/21 00:39:18;;;;;;;;;7.50;5.25;;;;;7.31;63.21;101975.66;5427710;26;45630;-62
2024/04/21 00:41:43;;;;;;;;;9.50;4.00;;;;;7.31;63.38;101973.06;5430932;26;70763;-63
2024/04/21 00:44:08;;;;;;;;;8.75;4.75;;;;;7.28;62.78;101973.03;5430741;25;43858;-63
2024/04/21 00:46:34;;;;;;;;;7.25;4.25;;;;;7.25;63.21;101981.72;5454999;26;43978;-63
2024/04/21 00:48:59;;;;;;;;;9.25;3.00;;;;;7.19;63.94;101966.91;5451287;26;73063;-64
2024/04/21 00:51:25;;;;;;;;;5.75;4.00;;;;;7.16;63.31;101959.09;5429314;26;43811;-62
2024/04/21 00:53:51;;;;;;;;;8.50;4.00;;;;;7.16;64.19;101964.28;5428754;26;69070;-64
2024/04/21 00:56:17;;;;;;;;;8.00;5.25;;;;;7.14;64.02;101954.75;5429688;26;44000;-64
2024/04/21 00:58:44;;;;;;;;;8.00;4.00;;;;;7.14;64.12;101952.13;5430943;26;43986;-64
2024/04/21 01:01:09;;;;;;;;;9.00;4.00;;;;;7.13;64.04;101945.16;5446415;25;43839;-64
2024/04/21 01:03:35;;;;;;;;;6.75;5.00;;;;;7.14;64.53;101946.94;5428817;26;59374;-64
2024/04/21 01:06:00;;;;;;;;;8.25;5.00;;;;;7.13;63.95;101937.38;5429665;26;43914;-65
2024/04/21 01:08:25;;;;;;;;;7.75;4.75;;;;;7.13;63.80;101934.75;5457684;26;44223;-64
2024/04/21 01:10:51;;;;;;;;;8.00;4.50;;;;;7.12;63.72;101939.09;5446055;25;57510;-64
2024/04/21 01:13:16;;;;;;;;;6.50;4.00;;;;;7.11;64.31;101936.50;5429686;26;43872;-64
2024/04/21 01:15:41;;;;;;;;;8.75;7.00;;;;;7.10;64.59;101938.22;5443260;26;44208;-63
2024/04/21 01:18:07;;;;;;;;;9.50;7.25;;;;;7.09;63.30;101930.41;5456607;26;73916;-63
2024/04/21 01:20:34;;;;;;;;;9.25;4.00;;;;;7.08;63.80;101929.50;5465766;25;44334;-63
2024/04/21 01:22:59;;;;;;;;;8.50;6.50;;;;;7.08;63.46;101932.13;5459552;25;43794;-64
2024/04/21 01:25:25;;;;;;;;;8.50;5.25;;;;;7.09;64.49;101935.59;5428927;26;60467;-62
2024/04/21 01:27:51;;;;;;;;;6.00;4.00;;;;;7.07;63.42;101925.19;5458104;26;43666;-62
2024/04/21 01:30:16;;;;;;;;;3.00;3.00;;;;;7.08;63.43;101929.50;5430225;26;43938;-62
2024/04/21 01:32:41;;;;;;;;;5.50;3.50;;;;;7.08;63.36;101924.31;5429509;26;43797;-63
2024/04/21 01:35:07;;;;;;;;;8.50;5.00;;;;;7.07;64.24;101925.19;5432008;26;43642;-62
2024/04/21 01:37:32;;;;;;;;;13.50;4.75;;;;;7.07;64.11;101925.19;5430568;26;67174;-63
2024/04/21 01:39:57;;;;;;;;;8.75;4.00;;;;;7.06;64.93;101923.44;5430818;26;61499;-63
2024/04/21 01:42:23;;;;;;;;;15.75;6.75;;;;;7.03;64.90;101926.03;5433645;26;64801;-63
2024/04/21 01:44:48;;;;;;;;;4.75;4.50;;;;;7.01;65.11;101926.03;5439288;26;70872;-63
2024/04/21 01:47:13;;;;;;;;;8.00;5.00;;;;;6.99;64.76;101925.16;5456142;26;64555;-64
2024/04/21 01:49:40;;;;;;;;;8.50;4.00;;;;;6.97;64.35;101912.97;5447171;26;71720;-64
2024/04/21 01:52:06;;;;;;;;;7.75;5.00;;;;;6.94;64.43;101916.44;5426715;26;43911;-63
2024/04/21 01:54:31;;;;;;;;;7.50;5.25;;;;;6.90;65.33;101906.84;5428627;26;43803;-63
2024/04/21 01:56:57;;;;;;;;;6.50;5.50;;;;;6.88;65.66;101913.75;5456921;26;43854;-64
2024/04/21 01:59:22;;;;;;;;;7.00;5.25;;;;;6.87;65.41;101908.53;5426484;26;43973;-64
2024/04/21 02:01:47;;;;;;;;;16.25;10.50;;;;;6.84;65.72;101904.22;5425581;26;62302;-66
2024/04/21 02:04:13;;;;;;;;;15.00;11.50;;;;;6.80;65.49;101905.06;5427400;26;70805;-64
2024/04/21 02:06:40;;;;;;;;;9.75;5.00;;;;;6.74;66.21;101895.44;5427141;26;69980;-64
2024/04/21 02:09:05;;;;;;;;;11.00;4.00;;;;;6.71;66.30;101894.56;5439892;26;43866;-63
2024/04/21 02:11:30;;;;;;;;;8.00;7.00;;;;;6.68;64.94;101891.94;5434475;25;60594;-64
2024/04/21 02:13:56;;;;;;;;;7.75;7.25;;;;;6.65;66.45;101890.19;5430080;26;50192;-64
2024/04/21 02:16:21;;;;;;;;;9.25;5.75;;;;;6.62;65.77;101891.03;5426011;26;74017;-64
2024/04/21 02:18:46;;;;;;;;;4.75;2.00;;;;;6.61;66.40;101889.28;5437142;26;55122;-64
2024/04/21 02:21:11;;;;;;;;;8.25;6.00;;;;;6.63;65.33;101890.16;5435903;26;44948;-63
2024/04/21 02:23:37;;;;;;;;;7.25;3.50;;;;;6.63;66.11;101890.16;5430561;26;71254;-64
2024/04/21 02:26:02;;;;;;;;;6.25;4.00;;;;;6.64;65.65;101883.25;5430356;26;70079;-63
2024/04/21 02:28:28;;;;;;;;;6.75;6.75;;;;;6.64;65.92;101880.66;5431812;26;43959;-63
2024/04/21 02:30:54;;;;;;;;;12.75;6.25;;;;;6.67;66.26;101890.19;5452443;26;67709;-64
2024/04/21 02:33:21;;;;;;;;;2.75;2.75;;;;;6.69;66.43;101881.53;5429673;26;43732;-64
2024/04/21 02:35:46;;;;;;;;;10.25;6.25;;;;;6.72;65.61;101884.16;5459599;26;44785;-63
2024/04/21 02:38:12;;;;;;;;;4.50;3.00;;;;;6.74;64.84;101884.19;5447132;26;43954;-63
2024/04/21 02:40:38;;;;;;;;;13.00;7.00;;;;;6.75;65.14;101888.53;5463606;26;61982;-64
2024/04/21 02:43:04;;;;;;;;;7.50;4.75;;;;;6.75;66.07;101889.41;5432693;26;43998;-64
2024/04/21 02:45:29;;;;;;;;;4.50;4.50;;;;;6.76;64.84;101893.72;5430415;26;44127;-64
2024/04/21 02:47:55;;;;;;;;;7.50;4.00;;;;;6.79;65.14;101885.94;5444051;26;70934;-64
2024/04/21 02:50:20;;;;;;;;;7.25;5.75;;;;;6.82;65.94;101890.31;5439455;26;62593;-63
2024/04/21 02:52:45;;;;;;;;;6.75;4.00;;;;;6.81;64.89;101893.75;5432870;26;71996;-63
2024/04/21 02:55:11;;;;;;;;;4.00;3.00;;;;;6.77;65.42;101890.28;5432582;26;74450;-64
2024/04/21 02:57:36;;;;;;;;;8.25;4.00;;;;;6.74;65.02;101879.84;5460409;26;69155;-64
2024/04/21 03:00:02;;;;;;;;;7.00;4.75;;;;;6.75;64.92;101881.59;5429760;26;68158;-64
2024/04/21 03:02:27;;;;;;;;;7.50;3.00;;;;;6.78;65.07;101876.41;5429731;26;44080;-64
2024/04/21 03:04:53;;;;;;;;;11.00;6.00;;;;;6.78;65.17;101875.53;5447942;26;73274;-64
2024/04/21 03:07:18;;;;;;;;;7.00;3.50;;;;;6.73;65.58;101870.31;5430885;26;43817;-64
2024/04/21 03:09:43;;;;;;;;;9.25;5.00;;;;;6.69;65.07;101878.06;5448563;26;64053;-64
2024/04/21 03:12:09;;;;;;;;;9.00;3.75;;;;;6.63;65.08;101864.16;5451008;26;68374;-64
2024/04/21 03:14:35;;;;;;;;;3.75;3.50;;;;;6.61;65.14;101870.22;5439588;25;44627;-64
2024/04/21 03:17:00;;;;;;;;;3.75;3.75;;;;;6.56;64.89;101853.69;5430890;26;43880;-65
2024/04/21 03:19:26;;;;;;;;;6.00;2.00;;;;;6.57;64.71;101868.44;5431544;26;67712;-65
2024/04/21 03:21:51;;;;;;;;;5.50;2.00;;;;;6.55;64.52;101864.94;5429311;26;43816;-63
2024/04/21 03:24:16;;;;;;;;;5.00;4.00;;;;;6.56;65.28;101870.16;5429754;26;70846;-63
2024/04/21 03:26:42;;;;;;;;;3.75;3.00;;;;;6.57;64.59;101865.81;5430363;26;55047;-64
2024/04/21 03:29:07;;;;;;;;;5.50;3.00;;;;;6.56;64.93;101871.91;5434314;26;62279;-64
2024/04/21 03:31:32;;;;;;;;;6.25;3.25;;;;;6.54;65.35;101863.22;5461847;26;67153;-63
2024/04/21 03:33:58;;;;;;;;;6.00;1.00;;;;;6.51;64.95;101871.84;5466084;25;67562;-64
2024/04/21 03:36:23;;;;;;;;;2.50;2.00;;;;;6.51;65.93;101868.41;5464513;26;62888;-64
2024/04/21 03:38:48;;;;;;;;;3.75;2.00;;;;;6.49;65.82;101868.38;5466317;25;60722;-63
2024/04/21 03:41:14;;;;;;;;;2.50;2.00;;;;;6.47;65.08;101863.16;5464198;26;72704;-64
2024/04/21 03:43:39;;;;;;;;;3.25;1.75;;;;;6.45;65.36;101861.41;5464056;26;74167;-64
2024/04/21 03:46:05;;;;;;;;;5.00;1.75;;;;;6.47;65.10;101864.91;5463472;25;43816;-64
2024/04/21 03:48:30;;;;;;;;;1.00;1.00;;;;;6.51;64.91;101863.19;5464822;26;43767;-64
2024/04/21 03:50:56;;;;;;;;;3.75;1.75;;;;;6.51;64.72;101858.84;5440291;26;43741;-64
2024/04/21 03:53:22;;;;;;;;;7.75;3.50;;;;;6.50;65.28;101862.34;5441042;25;67084;-64
2024/04/21 03:55:47;;;;;;;;;2.50;1.75;;;;;6.49;65.13;101857.13;5439137;26;43901;-64
2024/04/21 03:58:12;;;;;;;;;6.00;2.75;;;;;6.51;66.08;101858.84;5466190;25;43870;-64
2024/04/21 04:00:38;;;;;;;;;5.00;2.75;;;;;6.53;65.88;101854.53;5463677;26;60899;-63
2024/04/21 04:03:04;;;;;;;;;2.00;2.00;;;;;6.50;65.83;101849.34;5458898;26;46170;-63
2024/04/21 04:05:29;;;;;;;;;5.25;3.50;;;;;6.50;64.79;101851.94;5433267;26;43785;-61
2024/04/21 04:07:54;;;;;;;;;1.75;1.50;;;;;6.50;64.63;101851.94;5432583;26;59830;-63
2024/04/21 04:10:20;;;;;;;;;6.00;2.75;;;;;6.48;64.81;101838.06;5450543;26;71471;-61
2024/04/21 04:12:45;;;;;;;;;7.50;1.00;;;;;6.43;64.93;101838.00;5451988;26;64342;-63
2024/04/21 04:15:14;;;;;;;;;3.00;3.00;;;;;6.38;65.73;101839.69;5429719;25;59687;-63
2024/04/21 04:17:39;;;;;;;;;4.00;2.00;;;;;6.32;64.85;101833.56;5412425;26;43902;-64
2024/04/21 04:20:06;;;;;;;;;6.00;2.00;;;;;6.26;65.20;101835.25;5456667;26;61784;-63
2024/04/21 04:22:34;;;;;;;;;2.00;2.00;;;;;6.20;65.83;101832.63;5466502;25;44738;-63
2024/04/21 04:24:59;;;;;;;;;3.50;2.25;;;;;6.15;65.72;101836.91;5453106;26;44154;-62
2024/04/21 04:27:25;;;;;;;;;3.00;3.00;;;;;6.09;65.89;101829.03;5429586;26;51902;-62
2024/04/21 04:29:50;;;;;;;;;6.50;4.00;;;;;6.08;66.30;101835.97;5429237;26;65502;-62
2024/04/21 04:32:15;;;;;;;;;4.00;2.00;;;;;6.08;67.19;101835.97;5428902;26;74247;-64
2024/04/21 04:34:41;;;;;;;;;6.00;3.50;;;;;6.07;66.42;101842.03;5429300;26;62620;-63
2024/04/21 04:37:06;;;;;;;;;6.25;2.25;;;;;6.06;66.91;101837.69;5429424;26;59629;-65
2024/04/21 04:39:31;;;;;;;;;6.00;1.25;;;;;6.03;66.13;101834.19;5436245;26;65999;-63
2024/04/21 04:41:57;;;;;;;;;3.25;2.00;;;;;6.01;66.98;101836.75;5441891;25;70729;-64
2024/04/21 04:44:22;;;;;;;;;6.25;3.00;;;;;5.96;66.56;101832.38;5444896;26;44516;-64
2024/04/21 04:46:48;;;;;;;;;1.00;1.00;;;;;5.94;67.58;101829.72;5428158;26;67207;-64
2024/04/21 04:49:13;;;;;;;;;2.75;2.00;;;;;5.95;67.34;101826.28;5429857;26;46528;-64
2024/04/21 04:51:38;;;;;;;;;3.50;1.75;;;;;5.99;66.75;101833.28;5427447;26;53922;-63
2024/04/21 04:54:04;;;;;;;;;4.00;1.00;;;;;5.99;66.22;101830.69;5430698;26;52507;-63
2024/04/21 04:56:29;;;;;;;;;2.50;1.50;;;;;6.03;67.25;101832.44;5442086;25;67148;-64
2024/04/21 04:58:54;;;;;;;;;3.25;2.00;;;;;6.03;66.41;101832.44;5428712;26;71839;-64
2024/04/21 05:01:20;;;;;;;;;4.00;2.00;;;;;6.07;66.58;101828.16;5438390;26;71927;-63
2024/04/21 05:03:45;;;;;;;;;4.50;1.00;;;;;6.14;67.35;101834.28;5428923;26;69516;-63
2024/04/21 05:06:10;;;;;;;;;6.00;2.00;;;;;6.19;66.18;101832.59;5445342;25;44033;-63
2024/04/21 05:08:36;;;;;;;;;2.75;1.75;;;;;6.21;66.98;101838.69;5462436;25;72237;-63
2024/04/21 05:11:01;;;;;;;;;5.25;2.50;;;;;6.23;67.17;101835.25;5410308;26;72900;-63
2024/04/21 05:13:27;;;;;;;;;3.75;2.50;;;;;6.27;66.78;101833.53;5432737;26;43839;-62
2024/04/21 05:15:53;;;;;;;;;3.50;2.00;;;;;6.29;66.66;101831.81;5446510;26;43822;-64
2024/04/21 05:18:19;;;;;;;;;3.25;2.00;;;;;6.31;66.68;101830.09;5435312;26;44066;-64
2024/04/21 05:20:44;;;;;;;;;4.00;1.00;;;;;6.31;66.32;101829.25;5448035;25;44757;-63
2024/04/21 05:23:10;;;;;;;;;1.50;1.00;;;;;6.31;66.27;101826.66;5443446;26;69241;-63
2024/04/21 05:25:35;;;;;;;;;1.00;1.00;;;;;6.31;65.73;101830.09;5412136;26;43837;-64
2024/04/21 05:28:00;;;;;;;;;1.25;1.00;;;;;6.30;65.81;101830.94;5427997;26;71816;-64
2024/04/21 05:30:26;;;;;;;;;1.75;1.00;;;;;6.29;67.23;101834.44;5428959;26;43951;-64
2024/04/21 05:32:51;;;;;;;;;5.25;1.50;;;;;6.32;65.95;101830.97;5465068;25;43783;-64
2024/04/21 05:35:16;;;;;;;;;3.00;1.00;;;;;6.35;66.42;101837.06;5442288;25;43787;-64
2024/04/21 05:37:43;;;;;;;;;3.00;2.00;;;;;6.38;66.85;101836.22;5444900;26;60502;-63
2024/04/21 05:40:09;;;;;;;;;2.75;1.00;;;;;6.38;66.36;101831.03;5452562;25;44808;-63
2024/04/21 05:42:34;;;;;;;;;3.25;1.00;;;;;6.40;66.59;101837.09;5463444;26;43906;-63
2024/04/21 05:45:00;;;;;;;;;6.25;1.00;;;;;6.46;67.36;101838.03;5437188;25;43860;-63
2024/04/21 05:47:25;;;;;;;;;13.50;2.00;;;;;6.56;66.38;101833.75;5436964;26;43876;-63
2024/04/21 05:49:50;;;;;;;;;2.25;2.00;;;;;6.61;67.12;101845.06;5439818;26;45973;-64
2024/04/21 05:52:16;;;;;;;;;2.50;2.00;;;;;6.62;66.11;101840.72;5429107;26;43932;-63
2024/04/21 05:54:41;;;;;;;;;5.00;1.25;;;;;6.59;66.67;101841.59;5441087;25;55734;-63
2024/04/21 05:57:06;;;;;;;;;4.25;1.25;;;;;6.58;66.45;101842.44;5430496;26;64018;-63
2024/04/21 05:59:32;;;;;;;;;7.75;2.00;;;;;6.60;65.97;101845.06;5442561;25;75248;-63
2024/04/21 06:01:57;;;;;;;;;4.00;1.25;;;;;6.61;65.61;101849.41;5448902;26;51313;-64
2024/04/21 06:04:22;;;;;;;;;3.50;1.00;;;;;6.60;66.57;101838.13;5430998;26;58470;-63
2024/04/21 06:06:50;;;;;;;;;3.00;2.00;;;;;6.61;65.73;101844.22;5428896;26;66913;-63
2024/04/21 06:09:16;;;;;;;;;4.00;1.00;;;;;6.66;65.48;101839.91;5432340;26;46888;-62
2024/04/21 06:11:42;;;;;;;;;6.00;2.00;;;;;6.72;65.83;101841.69;5445626;26;46263;-63
2024/04/21 06:14:07;;;;;;;;;2.50;1.00;;;;;6.78;66.07;101850.41;5445103;26;67998;-63
2024/04/21 06:16:32;;;;;;;;;3.75;1.00;;;;;6.83;65.98;101851.31;5443422;26;60926;-63
2024/04/21 06:18:58;;;;;;;;;5.75;2.50;;;;;6.90;65.52;101851.34;5441595;26;73013;-63
2024/04/21 06:21:23;;;;;;;;;4.00;2.00;;;;;6.96;65.92;101844.44;5455382;25;68406;-63
2024/04/21 06:23:48;;;;;;;;;3.00;2.00;;;;;7.02;65.60;101849.66;5428620;26;67629;-63
2024/04/21 06:26:14;;;;;;;;;4.00;2.00;;;;;7.04;65.34;101841.88;5437254;26;71871;-62
2024/04/21 06:28:39;;;;;;;;;3.00;1.00;;;;;7.10;64.93;101846.22;5462017;26;68713;-63
2024/04/21 06:31:04;;;;;;;;;2.00;1.50;;;;;7.15;64.88;101840.22;5460077;25;66259;-61
2024/04/21 06:33:29;;;;;;;;;0.75;0.00;;;;;7.21;64.66;101841.97;5454181;26;64789;-62
2024/04/21 06:35:55;;;;;;;;;1.75;1.00;;;;;7.28;64.26;101840.25;5436198;26;67557;-61
2024/04/21 06:38:20;;;;;;;;;2.00;1.00;;;;;7.31;63.99;101854.16;5430287;26;71099;-63
2024/04/21 06:40:45;;;;;;;;;1.00;1.00;;;;;7.30;64.79;101844.59;5431405;26;44790;-61
2024/04/21 06:43:11;;;;;;;;;1.00;1.00;;;;;7.33;63.73;101847.22;5466782;25;65914;-63
2024/04/21 06:45:36;;;;;;;;;0.50;0.50;;;;;7.37;63.66;101846.38;5442197;25;72544;-63
2024/04/21 06:48:02;;;;;;;;;2.50;1.00;;;;;7.39;64.78;101842.03;5494534;25;44878;-62
2024/04/21 06:50:27;;;;;;;;;1.75;1.00;;;;;7.46;64.09;101847.28;5466971;25;44906;-63
2024/04/21 06:52:53;;;;;;;;;1.75;1.75;;;;;7.47;65.07;101844.69;5464652;25;43899;-63
2024/04/21 06:55:18;;;;;;;;;3.00;1.00;;;;;7.51;64.29;101853.38;5461281;25;45626;-64
2024/04/21 06:57:44;;;;;;;;;9.00;2.00;;;;;7.54;64.03;101843.84;5444298;26;68595;-63
2024/04/21 07:00:11;;;;;;;;;4.75;1.00;;;;;7.54;63.85;101837.75;5461770;26;43773;-63
2024/04/21 07:02:37;;;;;;;;;3.75;1.00;;;;;7.57;63.94;101845.56;5430868;26;43884;-64
2024/04/21 07:05:02;;;;;;;;;2.25;1.00;;;;;7.55;64.25;101844.72;5430563;26;45858;-63
2024/04/21 07:07:27;;;;;;;;;5.00;1.00;;;;;7.54;63.36;101846.44;5435867;26;44121;-63
2024/04/21 07:09:53;;;;;;;;;1.00;1.00;;;;;7.58;64.53;101836.91;5453120;26;72959;-64
2024/04/21 07:12:18;;;;;;;;;2.00;1.00;;;;;7.66;64.60;101840.38;5463401;25;67063;-63
2024/04/21 07:14:43;;;;;;;;;1.75;1.75;;;;;7.71;63.84;101840.41;5439368;25;44007;-62
2024/04/21 07:17:09;;;;;;;;;3.00;1.00;;;;;7.74;63.69;101841.28;5430206;26;60604;-64
2024/04/21 07:19:34;;;;;;;;;1.00;1.00;;;;;7.74;63.83;101840.44;5446896;26;74131;-63
2024/04/21 07:21:59;;;;;;;;;4.50;1.25;;;;;7.77;64.20;101843.91;5452622;26;43869;-60
2024/04/21 07:24:25;;;;;;;;;1.00;1.00;;;;;7.78;63.52;101848.25;5454877;26;43993;-63
2024/04/21 07:26:50;;;;;;;;;1.00;1.00;;;;;7.76;63.66;101844.75;5459161;26;71612;-64
2024/04/21 07:29:15;;;;;;;;;6.25;0.75;;;;;7.79;64.16;101839.56;5436462;26;71832;-58
2024/04/21 07:31:41;;;;;;;;;3.00;1.00;;;;;7.84;63.03;101849.97;5438390;26;69307;-59
2024/04/21 07:34:06;;;;;;;;;2.50;1.00;;;;;7.93;63.11;101842.22;5459206;26;44002;-60
2024/04/21 07:36:32;;;;;;;;;5.50;1.00;;;;;8.01;63.98;101846.56;5459753;25;45528;-58
2024/04/21 07:38:57;;;;;;;;;2.25;1.00;;;;;8.08;63.23;101838.75;5462445;25;43800;-65
2024/04/21 07:41:22;;;;;;;;;2.00;1.00;;;;;8.11;62.72;101843.06;5465342;25;43816;-67
2024/04/21 07:43:48;;;;;;;;;2.50;1.00;;;;;8.12;62.50;101837.88;5460144;26;43705;-63
2024/04/21 07:46:13;;;;;;;;;1.00;1.00;;;;;8.11;62.97;101843.97;5469361;25;66468;-65
2024/04/21 07:48:38;;;;;;;;;4.00;2.00;;;;;8.10;64.03;101837.00;5462586;25;70370;-54
2024/04/21 07:51:04;;;;;;;;;2.50;0.75;;;;;8.16;63.18;101844.84;5449006;26;68470;-57
2024/04/21 07:53:29;;;;;;;;;1.00;1.00;;;;;8.27;63.86;101837.03;5448788;26;43873;-53
2024/04/21 07:55:54;;;;;;;;;1.00;1.00;;;;;8.35;64.06;101835.25;5432041;26;61882;-56
2024/04/21 07:58:20;;;;;;;;;1.75;1.50;;;;;8.47;62.74;101842.25;5451087;26;67548;-54
2024/04/21 08:00:45;;;;;;;;;3.00;1.25;;;;;8.58;63.29;101838.78;5446064;26;67943;-58
2024/04/21 08:03:10;;;;;;;;;4.00;2.00;;;;;8.64;63.27;101831.81;5432837;25;61346;-55
2024/04/21 08:05:36;;;;;;;;;1.00;1.00;;;;;8.66;62.05;101830.06;5448589;26;44045;-59
2024/04/21 08:08:01;;;;;;;;;2.25;1.00;;;;;8.64;62.27;101834.44;5462782;26;43799;-59
2024/04/21 08:10:26;;;;;;;;;5.00;1.00;;;;;8.65;61.10;101835.28;5460632;25;66319;-65
2024/04/21 08:12:52;;;;;;;;;3.25;0.50;;;;;8.68;61.69;101840.53;5434089;25;66771;-65
2024/04/21 08:15:17;;;;;;;;;1.00;1.00;;;;;8.63;61.03;101830.06;5439447;26;73414;-65
2024/04/21 08:17:42;;;;;;;;;5.50;1.00;;;;;8.63;61.34;101835.28;5465074;25;71262;-65
2024/04/21 08:20:09;;;;;;;;;2.75;0.00;;;;;8.66;60.45;101837.03;5448556;25;69142;-64
2024/04/21 08:22:34;;;;;;;;;1.00;1.00;;;;;8.70;60.02;101837.03;5463033;25;44061;-64
2024/04/21 08:24:59;;;;;;;;;5.25;1.75;;;;;8.82;60.35;101843.06;5462477;26;72947;-64
2024/04/21 08:27:25;;;;;;;;;4.25;1.00;;;;;8.82;59.43;101854.41;5440954;25;49180;-64
2024/04/21 08:29:50;;;;;;;;;4.00;1.50;;;;;8.85;58.59;101841.38;5431902;26;43782;-63
2024/04/21 08:32:15;;;;;;;;;3.00;2.00;;;;;8.87;59.18;101857.00;5448978;25;71535;-64
2024/04/21 08:34:41;;;;;;;;;4.00;0.75;;;;;8.85;58.26;101849.19;5442275;25;69817;-60
2024/04/21 08:37:06;;;;;;;;;5.50;1.50;;;;;8.85;59.09;101838.75;5451702;26;43825;-65
2024/04/21 08:39:33;;;;;;;;;2.50;1.00;;;;;8.91;58.82;101833.50;5453798;25;44095;-61
2024/04/21 08:41:58;;;;;;;;;2.75;2.00;;;;;9.08;59.29;101829.97;5452988;26;43730;-62
2024/04/21 08:44:24;;;;;;;;;3.00;2.50;;;;;9.28;59.18;101832.53;5439036;26;44841;-61
2024/04/21 08:46:50;;;;;;;;;2.25;2.00;;;;;9.44;58.09;101826.34;5427835;26;44110;-61
2024/04/21 08:49:16;;;;;;;;;3.00;2.00;;;;;9.62;57.29;101843.69;5403770;26;43832;-61
2024/04/21 08:51:43;;;;;;;;;5.00;2.00;;;;;9.78;56.60;101831.41;5458965;25;43803;-63
2024/04/21 08:54:08;;;;;;;;;2.50;2.00;;;;;9.95;56.69;101835.63;5458816;25;43943;-61
2024/04/21 08:56:36;;;;;;;;;2.75;2.75;;;;;10.10;55.74;101832.06;5440471;25;43871;-60
2024/04/21 08:59:02;;;;;;;;;2.00;2.00;;;;;10.21;56.10;101820.63;5449637;26;43752;-60
2024/04/21 09:01:27;;;;;;;;;2.00;2.00;;;;;10.30;55.72;101832.75;5430214;26;43994;-70
2024/04/21 09:03:53;;;;;;;;;3.75;2.00;;;;;10.36;55.71;101829.28;5454055;25;44195;-73
2024/04/21 09:06:26;;;;;;;;;2.00;1.00;;;;;10.30;54.78;101831.91;5440664;26;65420;-69
2024/04/21 09:08:52;;;;;;;;;2.25;1.00;;;;;10.19;55.02;101827.63;5465972;25;43746;-62
2024/04/21 09:11:17;;;;;;;;;3.00;1.00;;;;;10.05;54.73;101826.84;5460927;26;44027;-66
2024/04/21 09:13:43;;;;;;;;;3.00;1.00;;;;;9.88;53.96;101835.69;5449700;25;74437;-68
2024/04/21 09:16:09;;;;;;;;;4.00;3.00;;;;;9.79;54.63;101821.78;5439568;25;43714;-58
2024/04/21 09:18:35;;;;;;;;;2.00;1.00;;;;;9.91;54.86;101831.31;5457348;25;43659;-67
2024/04/21 09:21:00;;;;;;;;;1.25;1.00;;;;;9.98;54.02;101826.03;5436295;26;43735;-66
2024/04/21 09:23:26;;;;;;;;;2.75;1.00;;;;;9.87;54.28;101820.00;5455797;26;46506;-64
2024/04/21 09:25:51;;;;;;;;;5.00;2.00;;;;;9.84;54.28;101833.09;5450190;25;43917;-66
2024/04/21 09:28:16;;;;;;;;;2.00;1.00;;;;;9.96;52.85;101826.94;5463092;26;67706;-52
2024/04/21 09:30:41;;;;;;;;;4.25;1.50;;;;;10.14;52.67;101818.94;5431777;26;59621;-59
2024/04/21 09:33:08;;;;;;;;;1.75;1.00;;;;;10.35;51.58;101822.31;5463128;26;43992;-55
2024/04/21 09:35:36;;;;;;;;;10.25;5.75;;;;;10.38;50.12;101820.53;5461543;26;44058;-53
2024/04/21 09:38:01;;;;;;;;;2.50;1.00;;;;;10.34;49.89;101816.22;5462198;26;43880;-61
2024/04/21 09:40:27;;;;;;;;;1.00;1.00;;;;;10.31;50.67;101815.34;5461398;25;44012;-60
2024/04/21 09:42:53;;;;;;;;;2.25;1.25;;;;;10.24;50.44;101804.91;5451312;26;74727;-61
2024/04/21 09:45:20;;;;;;;;;1.00;1.00;;;;;10.16;50.88;101806.72;5466231;26;43994;-61
2024/04/21 09:47:46;;;;;;;;;4.00;1.00;;;;;10.07;51.09;101812.91;5464465;26;46577;-60
2024/04/21 09:50:12;;;;;;;;;4.00;2.00;;;;;10.04;51.49;101814.69;5465143;26;43918;-61
2024/04/21 09:52:38;;;;;;;;;2.50;1.00;;;;;10.12;51.29;101799.78;5467719;26;43938;-61
2024/04/21 09:55:04;;;;;;;;;1.75;1.00;;;;;10.21;52.07;101806.69;5452425;25;44293;-61
2024/04/21 09:57:35;;;;;;;;;1.25;1.00;;;;;10.21;51.60;101814.53;5442053;26;43925;-60
2024/04/21 10:00:03;;;;;;;;;2.50;1.00;;;;;10.32;51.09;101810.09;5463482;26;43918;-60
2024/04/21 10:02:35;;;;;;;;;3.00;1.00;;;;;10.39;50.78;101805.69;5464261;25;43768;-59
2024/04/21 10:05:04;;;;;;;;;2.00;1.75;;;;;10.38;50.51;101804.81;5464308;26;43912;-59
2024/04/21 10:07:33;;;;;;;;;2.00;2.00;;;;;10.41;50.18;101803.91;5444419;26;43894;-56
2024/04/21 10:09:59;;;;;;;;;2.75;0.75;;;;;10.51;49.70;101792.50;5451380;26;44052;-58
2024/04/21 10:12:25;;;;;;;;;2.00;1.00;;;;;10.61;48.84;101796.75;5453369;26;71762;-57
2024/04/21 10:14:51;;;;;;;;;1.00;1.00;;;;;10.64;49.42;101772.28;5456305;26;69671;-59
2024/04/21 10:17:17;;;;;;;;;1.00;1.00;;;;;10.77;49.54;101767.81;5463990;25;43912;-59
2024/04/21 10:19:42;;;;;;;;;1.00;0.75;;;;;11.05;48.75;101763.09;5452799;25;43757;-54
2024/04/21 10:22:08;;;;;;;;;3.50;3.00;;;;;11.33;48.66;101781.06;5464440;25;69692;-54
2024/04/21 10:24:33;;;;;;;;;7.00;4.00;;;;;11.48;47.99;101764.28;5461836;26;70868;-54
2024/04/21 10:27:00;;;;;;;;;2.50;1.75;;;;;11.61;48.62;101763.22;5461489;25;44401;-54
2024/04/21 10:29:28;;;;;;;;;5.75;4.00;;;;;11.67;47.80;101767.50;5458442;25;44106;-56
2024/04/21 10:31:54;;;;;;;;;2.00;0.00;;;;;11.63;47.09;101769.28;5448798;25;43950;-59
2024/04/21 10:34:19;;;;;;;;;4.00;1.00;;;;;11.57;46.95;101766.78;5430635;26;44314;-59
2024/04/21 10:36:46;;;;;;;;;2.75;1.00;;;;;11.55;47.33;101763.31;5425442;26;68105;-60
2024/04/21 10:39:21;;;;;;;;;6.75;5.75;;;;;11.54;47.62;101759.84;5432875;26;44048;-59
2024/04/21 10:41:47;;;;;;;;;3.00;2.00;;;;;11.54;47.36;101761.56;5459662;25;44854;-59
2024/04/21 10:44:12;;;;;;;;;5.50;3.25;;;;;11.46;47.46;101769.53;5454576;26;71539;-60
2024/04/21 10:46:38;;;;;;;;;5.00;2.00;;;;;11.40;47.62;101760.03;5462998;25;44189;-57
2024/04/21 10:49:05;;;;;;;;;2.00;1.75;;;;;11.42;47.68;101756.50;5457002;26;44076;-57
2024/04/21 10:51:30;;;;;;;;;2.75;2.75;;;;;11.51;47.29;101752.00;5457472;26;44930;-61
2024/04/21 10:53:56;;;;;;;;;2.00;2.00;;;;;11.53;46.83;101750.22;5462687;26;43845;-59
2024/04/21 10:56:21;;;;;;;;;3.00;3.00;;;;;11.42;46.93;101731.19;5422526;26;43973;-59
2024/04/21 10:58:48;;;;;;;;;3.00;2.25;;;;;11.43;47.29;101724.16;5466016;25;45849;-56
2024/04/21 11:01:13;;;;;;;;;3.00;3.00;;;;;11.41;47.40;101734.66;5431040;26;43889;-56
2024/04/21 11:03:41;;;;;;;;;2.25;2.25;;;;;11.47;47.18;101715.34;5451665;26;43881;-57
2024/04/21 11:06:08;;;;;;;;;4.00;1.75;;;;;11.61;47.52;101700.28;5441972;26;44801;-55
2024/04/21 11:08:34;;;;;;;;;9.00;4.75;;;;;11.83;47.31;101692.94;5464836;26;43909;-60
2024/04/21 11:10:59;;;;;;;;;6.50;5.75;;;;;11.89;47.24;101721.69;5450215;25;44019;-59
2024/04/21 11:13:24;;;;;;;;;12.00;7.00;;;;;11.75;53.27;101769.09;5462059;26;52242;-63
2024/04/21 11:15:50;;;;;;;;;3.25;2.25;;;;;11.23;52.32;101742.81;5465584;25;67066;-60
2024/04/21 11:18:16;;;;;;;;;3.50;2.00;;;;;10.66;54.54;101761.81;5459808;25;65377;-61
2024/04/21 11:20:42;;;;;;;;;4.00;2.00;;;;;10.07;57.31;101760.59;5448608;26;44706;-59
2024/04/21 11:23:09;;;;;;;;;3.00;3.00;;;;;9.50;58.66;101745.31;5404655;26;43729;-59